Time;durP1;ratioP1;P1;durP2;ratioP2;P2;SDS_P1;SDS_P2;PMS_P1;PMS_P2;Temp;Humidity;BMP_temperature;BMP_pressure;BME280_temperature;BME280_humidity;BME280_pressure;Samples;Min_cycle;Max_cycle;Signal;HPM_P1;HPM_P2
2023/08/08 00:00:38;;;;;;;9.52;3.90;;;14.10;99.90;;;;;;4803686;29;20180;-51
2023/08/08 00:03:04;;;;;;;8.30;4.68;;;14.10;99.90;;;;;;4802175;29;20104;-52
2023/08/08 00:05:30;;;;;;;6.82;4.20;;;14.10;99.90;;;;;;4802729;29;20039;-52
2023/08/08 00:07:55;;;;;;;7.53;4.65;;;14.10;99.90;;;;;;4800331;29;20046;-52
2023/08/08 00:10:21;;;;;;;12.85;4.93;;;14.10;99.90;;;;;;4803940;29;20414;-51
2023/08/08 00:12:47;;;;;;;6.40;4.25;;;14.20;99.90;;;;;;4803967;29;20043;-53
2023/08/08 00:15:13;;;;;;;6.93;4.72;;;14.20;99.90;;;;;;4802348;29;20077;-53
2023/08/08 00:17:38;;;;;;;10.38;3.85;;;14.20;99.90;;;;;;4803752;29;20053;-48
2023/08/08 00:20:05;;;;;;;7.43;4.53;;;14.20;99.90;;;;;;4801353;29;20036;-52
2023/08/08 00:22:31;;;;;;;8.85;3.80;;;14.20;99.90;;;;;;4803845;29;20038;-52
2023/08/08 00:24:56;;;;;;;6.22;4.43;;;14.20;99.90;;;;;;4803686;29;20398;-52
2023/08/08 00:27:22;;;;;;;8.60;4.05;;;14.20;99.90;;;;;;4801220;29;20092;-51
2023/08/08 00:29:48;;;;;;;8.38;4.82;;;14.30;99.90;;;;;;4803763;29;20389;-51
2023/08/08 00:32:14;;;;;;;11.95;4.50;;;14.20;99.90;;;;;;4806915;29;20089;-50
2023/08/08 00:34:39;;;;;;;8.23;4.80;;;14.30;99.90;;;;;;4807370;29;20039;-50
2023/08/08 00:37:05;;;;;;;9.90;5.43;;;14.20;99.90;;;;;;4806940;29;20591;-49
2023/08/08 00:39:31;;;;;;;9.48;5.10;;;14.30;99.90;;;;;;4806265;29;20411;-53
2023/08/08 00:41:56;;;;;;;6.97;3.55;;;14.20;99.90;;;;;;4807065;29;20471;-50
2023/08/08 00:44:22;;;;;;;7.40;3.88;;;14.20;99.90;;;;;;4806837;29;20540;-49
2023/08/08 00:46:48;;;;;;;11.07;3.88;;;14.30;99.90;;;;;;4805881;29;20030;-50
2023/08/08 00:49:14;;;;;;;8.60;4.60;;;14.30;99.90;;;;;;4806660;29;20043;-53
2023/08/08 00:51:40;;;;;;;8.60;4.25;;;14.30;99.90;;;;;;4804872;29;20061;-50
2023/08/08 00:54:07;;;;;;;11.48;4.90;;;14.40;99.90;;;;;;4806792;29;20054;-49
2023/08/08 00:56:33;;;;;;;10.98;4.50;;;14.40;99.90;;;;;;4806998;29;20179;-50
2023/08/08 00:58:59;;;;;;;7.15;4.07;;;14.40;99.90;;;;;;4806342;29;20050;-52
2023/08/08 01:01:24;;;;;;;8.48;3.47;;;14.40;99.90;;;;;;4805124;29;20043;-53
2023/08/08 01:03:52;;;;;;;10.70;3.30;;;14.50;99.90;;;;;;4806794;29;20035;-51
2023/08/08 01:06:51;;;;;;;6.57;4.20;;;14.40;99.90;;;;;;4806033;29;20071;-50
2023/08/08 01:09:33;;;;;;;10.95;4.82;;;14.50;99.90;;;;;;4806534;29;20054;-52
2023/08/08 01:12:01;;;;;;;9.52;4.63;;;14.50;99.90;;;;;;4806366;29;20050;-52
2023/08/08 01:14:29;;;;;;;7.63;4.38;;;14.50;99.90;;;;;;4806284;29;20195;-52
2023/08/08 01:16:57;;;;;;;10.02;4.50;;;14.50;99.90;;;;;;4806079;29;20943;-49
2023/08/08 01:19:29;;;;;;;9.75;3.97;;;14.50;99.90;;;;;;4805861;29;20067;-50
2023/08/08 01:22:00;;;;;;;7.10;3.30;;;14.60;99.90;;;;;;4819933;29;20129;-51
2023/08/08 01:24:29;;;;;;;12.68;5.05;;;14.50;99.90;;;;;;4806081;29;20049;-51
2023/08/08 01:26:55;;;;;;;11.80;4.93;;;14.60;99.90;;;;;;4806345;29;20074;-51
2023/08/08 01:29:21;;;;;;;9.90;4.65;;;14.50;99.90;;;;;;4804886;29;20053;-50
2023/08/08 01:31:47;;;;;;;9.13;4.20;;;14.60;99.90;;;;;;4819036;29;20039;-51
2023/08/08 01:34:13;;;;;;;11.50;5.35;;;14.50;99.90;;;;;;4805207;29;20066;-50
2023/08/08 01:37:05;;;;;;;8.80;5.25;;;14.60;99.90;;;;;;4804755;29;20050;-47
2023/08/08 01:39:32;;;;;;;12.85;4.88;;;14.70;99.90;;;;;;4804830;29;20491;-48
2023/08/08 01:42:00;;;;;;;13.48;5.28;;;14.50;99.90;;;;;;4805325;29;20043;-50
2023/08/08 01:44:28;;;;;;;13.30;6.70;;;14.60;99.90;;;;;;4805400;29;20599;-50
2023/08/08 01:46:54;;;;;;;10.02;6.45;;;14.50;99.90;;;;;;4805943;29;20110;-47
2023/08/08 01:49:20;;;;;;;13.07;5.47;;;14.50;99.90;;;;;;4806102;29;20046;-50
2023/08/08 01:51:45;;;;;;;12.65;6.70;;;14.50;99.90;;;;;;4805586;29;20483;-51
2023/08/08 01:54:11;;;;;;;10.07;6.65;;;14.50;99.90;;;;;;4805997;29;20058;-50
2023/08/08 01:56:37;;;;;;;10.75;7.05;;;14.50;99.90;;;;;;4804298;29;20517;-49
2023/08/08 01:59:02;;;;;;;17.75;5.70;;;14.40;99.90;;;;;;4805832;29;20180;-50
2023/08/08 02:01:28;;;;;;;9.98;6.28;;;14.40;99.90;;;;;;4805572;29;20192;-53
2023/08/08 02:03:54;;;;;;;11.98;6.65;;;14.40;99.90;;;;;;4805711;29;20043;-52
2023/08/08 02:06:20;;;;;;;11.70;5.72;;;14.40;99.90;;;;;;4805160;29;20452;-52
2023/08/08 02:08:46;;;;;;;12.85;6.43;;;14.40;99.90;;;;;;4805711;29;20042;-51
2023/08/08 02:11:11;;;;;;;13.77;6.75;;;14.30;99.90;;;;;;4805366;29;20054;-52
2023/08/08 02:13:37;;;;;;;11.13;6.85;;;14.40;99.90;;;;;;4805552;29;20499;-49
2023/08/08 02:16:03;;;;;;;11.65;6.90;;;14.40;99.90;;;;;;4805543;29;20122;-49
2023/08/08 02:18:29;;;;;;;12.52;7.05;;;14.40;99.90;;;;;;4805116;29;20130;-51
2023/08/08 02:20:55;;;;;;;13.50;6.95;;;14.50;99.90;;;;;;4804605;29;20129;-50
2023/08/08 02:23:20;;;;;;;11.55;6.45;;;14.50;99.90;;;;;;4805405;29;20054;-49
2023/08/08 02:25:46;;;;;;;12.93;6.85;;;14.40;99.90;;;;;;4805520;29;20034;-51
2023/08/08 02:28:12;;;;;;;11.32;6.70;;;14.30;99.90;;;;;;4805263;29;20127;-51
2023/08/08 02:30:38;;;;;;;11.13;6.00;;;14.30;99.90;;;;;;4805151;29;20468;-50
2023/08/08 02:33:04;;;;;;;10.93;5.43;;;14.40;99.90;;;;;;4804793;29;20474;-49
2023/08/08 02:35:29;;;;;;;17.23;5.28;;;14.30;99.90;;;;;;4803836;29;20043;-49
2023/08/08 02:37:56;;;;;;;15.18;4.13;;;14.30;99.90;;;;;;4804536;29;20050;-50
2023/08/08 02:40:23;;;;;;;14.63;5.53;;;14.30;99.90;;;;;;4804692;29;20077;-51
2023/08/08 02:42:49;;;;;;;10.23;3.70;;;14.40;99.90;;;;;;4804606;29;20069;-51
2023/08/08 02:45:15;;;;;;;10.10;4.50;;;14.40;99.90;;;;;;4805124;29;20051;-51
2023/08/08 02:47:41;;;;;;;9.85;4.78;;;14.40;99.90;;;;;;4804941;29;20403;-53
2023/08/08 02:50:07;;;;;;;9.00;4.82;;;14.30;99.90;;;;;;4804730;29;20042;-50
2023/08/08 02:52:33;;;;;;;10.70;4.70;;;14.50;99.90;;;;;;4804841;29;20046;-48
2023/08/08 02:54:59;;;;;;;12.88;4.15;;;14.40;99.90;;;;;;4804841;29;20411;-52
2023/08/08 02:57:24;;;;;;;8.60;3.90;;;14.30;99.90;;;;;;4804411;29;20505;-51
2023/08/08 02:59:50;;;;;;;8.02;4.03;;;14.40;99.90;;;;;;4804826;29;20035;-47
2023/08/08 03:02:16;;;;;;;11.50;4.20;;;14.30;99.90;;;;;;4803133;29;20046;-50
2023/08/08 03:04:42;;;;;;;9.60;3.45;;;14.40;99.90;;;;;;4803446;29;20084;-50
2023/08/08 03:07:07;;;;;;;9.77;3.80;;;14.40;99.90;;;;;;4804195;29;20134;-52
2023/08/08 03:09:33;;;;;;;11.55;3.70;;;14.40;99.90;;;;;;4804631;29;20479;-47
2023/08/08 03:11:59;;;;;;;8.02;3.65;;;14.40;99.90;;;;;;4804468;29;20399;-51
2023/08/08 03:14:24;;;;;;;10.45;3.70;;;14.30;99.90;;;;;;4804696;29;20054;-49
2023/08/08 03:16:50;;;;;;;7.22;3.50;;;14.30;99.90;;;;;;4804309;29;20057;-51
2023/08/08 03:19:16;;;;;;;9.88;3.45;;;14.30;99.90;;;;;;4804534;29;20051;-48
2023/08/08 03:21:41;;;;;;;5.88;3.03;;;14.20;99.90;;;;;;4804297;29;20042;-49
2023/08/08 03:24:07;;;;;;;8.52;3.40;;;14.20;99.90;;;;;;4804261;29;20399;-51
2023/08/08 03:26:33;;;;;;;6.78;3.10;;;14.20;99.90;;;;;;4804452;29;20042;-51
2023/08/08 03:28:59;;;;;;;7.57;2.97;;;14.10;99.90;;;;;;4804425;29;20041;-51
2023/08/08 03:31:26;;;;;;;9.15;2.72;;;14.20;99.90;;;;;;4802927;29;20084;-52
2023/08/08 03:33:51;;;;;;;7.78;2.10;;;14.10;99.90;;;;;;4802847;29;20059;-51
2023/08/08 03:36:17;;;;;;;8.32;2.53;;;14.10;99.90;;;;;;4803319;29;20053;-51
2023/08/08 03:38:45;;;;;;;6.97;2.70;;;14.00;99.90;;;;;;4804151;29;20051;-51
2023/08/08 03:41:12;;;;;;;7.80;2.30;;;14.10;99.90;;;;;;4803845;29;20047;-48
2023/08/08 03:43:38;;;;;;;6.38;2.30;;;14.00;99.90;;;;;;4803615;29;20111;-51
2023/08/08 03:46:04;;;;;;;7.80;2.20;;;13.90;99.90;;;;;;4803755;29;20100;-49
2023/08/08 03:48:30;;;;;;;9.23;1.77;;;13.90;99.90;;;;;;4803798;29;20456;-49
2023/08/08 03:50:55;;;;;;;7.35;2.00;;;13.90;99.90;;;;;;4804173;29;20039;-50
2023/08/08 03:53:21;;;;;;;9.20;2.38;;;13.90;99.90;;;;;;4804153;29;20073;-51
2023/08/08 03:55:47;;;;;;;9.27;2.00;;;14.00;99.90;;;;;;4803108;29;20411;-48
2023/08/08 03:58:12;;;;;;;6.82;1.67;;;14.00;99.90;;;;;;4803733;29;20050;-50
2023/08/08 04:00:45;;;;;;;9.00;1.85;;;13.90;99.90;;;;;;4803384;29;20053;-51
2023/08/08 04:03:14;;;;;;;8.38;2.35;;;13.90;99.90;;;;;;4803983;29;20411;-51
2023/08/08 04:05:41;;;;;;;8.25;1.90;;;13.90;99.90;;;;;;4819951;29;20073;-50
2023/08/08 04:08:07;;;;;;;5.97;1.75;;;13.90;99.90;;;;;;4809443;29;20043;-50
2023/08/08 04:10:32;;;;;;;7.28;1.92;;;13.90;99.90;;;;;;4806162;29;20142;-47
2023/08/08 04:12:58;;;;;;;8.10;2.00;;;14.00;99.90;;;;;;4807077;29;20102;-51
2023/08/08 04:15:24;;;;;;;7.68;1.65;;;14.00;99.90;;;;;;4809133;29;20550;-49
2023/08/08 04:17:49;;;;;;;7.72;1.70;;;13.90;99.90;;;;;;4807041;29;21062;-52
2023/08/08 04:20:15;;;;;;;8.63;1.60;;;13.90;99.90;;;;;;4807661;29;20403;-52
2023/08/08 04:22:41;;;;;;;6.45;1.88;;;13.90;99.90;;;;;;4805859;29;20084;-51
2023/08/08 04:25:07;;;;;;;9.82;1.50;;;14.00;99.90;;;;;;4809619;29;20039;-50
2023/08/08 04:27:33;;;;;;;7.65;1.70;;;13.90;99.90;;;;;;4809891;29;20107;-49
2023/08/08 04:29:59;;;;;;;5.90;1.80;;;13.90;99.90;;;;;;4809469;29;20043;-49
2023/08/08 04:32:24;;;;;;;7.30;1.35;;;13.90;99.90;;;;;;4808470;29;20090;-47
2023/08/08 04:34:50;;;;;;;7.57;1.70;;;13.90;99.90;;;;;;4809758;29;20043;-46
2023/08/08 04:37:16;;;;;;;6.25;1.20;;;13.80;99.90;;;;;;4809274;29;20047;-49
2023/08/08 04:39:41;;;;;;;5.40;1.10;;;13.90;99.90;;;;;;4807975;29;20069;-51
2023/08/08 04:42:07;;;;;;;9.40;1.92;;;13.80;99.90;;;;;;4807952;29;20074;-50
2023/08/08 04:44:34;;;;;;;7.28;1.77;;;13.80;99.90;;;;;;4809302;29;20104;-52
2023/08/08 04:47:00;;;;;;;3.58;1.40;;;13.80;99.90;;;;;;4809485;29;20126;-50
2023/08/08 04:49:25;;;;;;;9.05;2.00;;;13.90;99.90;;;;;;4808630;29;20042;-50
2023/08/08 04:51:51;;;;;;;7.20;1.30;;;13.90;99.90;;;;;;4809532;29;20471;-51
2023/08/08 04:54:17;;;;;;;8.88;1.90;;;13.90;99.90;;;;;;4807731;29;20077;-49
2023/08/08 04:56:42;;;;;;;5.07;1.20;;;13.90;99.90;;;;;;4809580;29;20127;-50
2023/08/08 04:59:08;;;;;;;8.85;1.90;;;13.90;99.90;;;;;;4809331;29;20129;-49
2023/08/08 05:01:34;;;;;;;7.25;1.77;;;13.90;99.90;;;;;;4809340;29;20078;-48
2023/08/08 05:03:59;;;;;;;6.70;1.63;;;13.80;99.90;;;;;;4809474;29;20096;-50
2023/08/08 05:06:25;;;;;;;6.85;1.98;;;13.80;99.90;;;;;;4821780;29;20547;-50
2023/08/08 05:08:52;;;;;;;6.78;1.23;;;13.80;99.90;;;;;;4809242;29;20559;-47
2023/08/08 05:11:17;;;;;;;7.78;1.52;;;13.80;99.90;;;;;;4809182;29;20077;-49
2023/08/08 05:13:43;;;;;;;7.50;1.52;;;13.80;99.90;;;;;;4809225;29;21606;-50
2023/08/08 05:16:09;;;;;;;9.43;1.50;;;13.80;99.90;;;;;;4806653;29;20047;-52
2023/08/08 05:18:34;;;;;;;6.45;1.40;;;13.90;99.90;;;;;;4805615;29;20042;-51
2023/08/08 05:21:00;;;;;;;6.35;1.45;;;13.90;99.90;;;;;;4806039;29;20506;-53
2023/08/08 05:23:26;;;;;;;5.32;1.45;;;14.00;99.90;;;;;;4806435;29;20039;-49
2023/08/08 05:25:51;;;;;;;4.72;1.25;;;14.00;99.90;;;;;;4806274;29;20046;-48
2023/08/08 05:28:17;;;;;;;3.08;1.23;;;14.00;99.90;;;;;;4806528;29;20050;-49
2023/08/08 05:30:43;;;;;;;7.47;1.80;;;14.00;99.90;;;;;;4806070;29;20109;-49
2023/08/08 05:33:08;;;;;;;7.75;1.27;;;14.00;99.90;;;;;;4805617;29;20054;-51
2023/08/08 05:35:34;;;;;;;10.02;1.73;;;14.10;99.90;;;;;;4806276;29;20127;-50
2023/08/08 05:38:00;;;;;;;8.35;1.65;;;14.10;99.90;;;;;;4805782;29;20035;-50
2023/08/08 05:40:26;;;;;;;9.57;2.15;;;14.20;99.90;;;;;;4806150;29;20045;-51
2023/08/08 05:42:51;;;;;;;4.45;1.30;;;14.30;99.90;;;;;;4803888;29;20055;-51
2023/08/08 05:45:17;;;;;;;10.50;1.83;;;14.40;99.90;;;;;;4804089;29;20039;-52
2023/08/08 05:47:43;;;;;;;6.82;1.42;;;14.60;99.90;;;;;;4802977;29;20373;-48
2023/08/08 05:50:09;;;;;;;5.72;1.40;;;14.60;99.90;;;;;;4805305;29;20039;-52
2023/08/08 05:52:34;;;;;;;7.00;1.65;;;14.70;99.90;;;;;;4804388;29;20510;-50
2023/08/08 05:55:00;;;;;;;6.72;1.48;;;14.70;99.90;;;;;;4803977;29;20050;-52
2023/08/08 05:57:26;;;;;;;6.65;1.58;;;14.80;99.90;;;;;;4805531;29;20039;-48
2023/08/08 05:59:52;;;;;;;7.53;1.55;;;14.80;99.90;;;;;;4805926;29;20047;-48
2023/08/08 06:02:18;;;;;;;6.72;1.30;;;14.90;99.90;;;;;;4819801;29;20051;-52
2023/08/08 06:04:44;;;;;;;6.38;1.60;;;14.90;99.90;;;;;;4805503;29;20046;-50
2023/08/08 06:07:09;;;;;;;8.27;1.60;;;15.00;99.90;;;;;;4805167;29;20043;-52
2023/08/08 06:09:37;;;;;;;13.32;1.65;;;15.00;99.90;;;;;;4805914;29;20438;-48
2023/08/08 06:12:03;;;;;;;8.50;1.63;;;15.10;99.90;;;;;;4804255;29;20054;-52
2023/08/08 06:14:31;;;;;;;5.10;1.02;;;15.20;99.90;;;;;;4804452;29;20043;-49
2023/08/08 06:16:56;;;;;;;5.90;1.38;;;15.10;99.90;;;;;;4805591;29;20502;-52
2023/08/08 06:19:22;;;;;;;6.30;0.98;;;15.20;99.90;;;;;;4805346;29;20089;-52
2023/08/08 06:21:48;;;;;;;6.13;1.35;;;15.30;99.90;;;;;;4805404;29;20078;-49
2023/08/08 06:24:15;;;;;;;5.60;1.40;;;15.30;99.90;;;;;;4805634;29;20117;-53
2023/08/08 06:26:40;;;;;;;4.80;0.95;;;15.30;99.90;;;;;;4805284;29;20039;-51
2023/08/08 06:29:06;;;;;;;8.43;1.70;;;15.30;99.90;;;;;;4802347;29;20424;-54
2023/08/08 06:31:32;;;;;;;6.85;1.50;;;15.30;99.90;;;;;;4805326;29;20039;-52
2023/08/08 06:33:58;;;;;;;6.97;1.38;;;15.40;99.90;;;;;;4805248;29;20403;-51
2023/08/08 06:36:23;;;;;;;8.65;1.45;;;15.40;99.90;;;;;;4804841;29;20035;-52
2023/08/08 06:38:49;;;;;;;8.30;1.40;;;15.40;99.90;;;;;;4802791;29;20050;-51
2023/08/08 06:41:15;;;;;;;7.45;1.55;;;15.40;99.90;;;;;;4803798;29;20047;-51
2023/08/08 06:43:40;;;;;;;5.95;1.38;;;15.60;99.90;;;;;;4803072;29;20051;-53
2023/08/08 06:46:06;;;;;;;7.85;1.35;;;15.60;99.90;;;;;;4803712;29;20053;-50
2023/08/08 06:48:32;;;;;;;5.90;1.35;;;15.60;99.90;;;;;;4805166;29;20142;-54
2023/08/08 06:50:57;;;;;;;5.40;1.05;;;15.60;99.90;;;;;;4802422;29;20479;-50
2023/08/08 06:53:23;;;;;;;6.75;1.20;;;15.70;99.90;;;;;;4802814;29;20095;-51
2023/08/08 06:55:49;;;;;;;7.10;1.30;;;15.80;99.90;;;;;;4803009;29;20138;-51
2023/08/08 06:58:15;;;;;;;5.70;1.15;;;15.80;99.90;;;;;;4804746;29;20097;-49
2023/08/08 07:00:40;;;;;;;5.45;0.95;;;15.80;99.90;;;;;;4802686;29;20189;-52
2023/08/08 07:03:06;;;;;;;8.90;1.38;;;15.80;99.90;;;;;;4815385;29;20047;-51
2023/08/08 07:05:32;;;;;;;6.32;1.58;;;16.00;99.90;;;;;;4796233;29;20039;-52
2023/08/08 07:07:58;;;;;;;6.28;1.20;;;16.00;99.90;;;;;;4799665;29;20056;-51
2023/08/08 07:10:23;;;;;;;7.93;1.33;;;16.00;99.90;;;;;;4801780;29;20054;-52
2023/08/08 07:12:49;;;;;;;6.82;1.20;;;16.10;99.90;;;;;;4800361;29;20403;-51
2023/08/08 07:15:15;;;;;;;4.13;0.80;;;16.10;99.90;;;;;;4801521;29;20111;-52
2023/08/08 07:17:41;;;;;;;7.18;1.58;;;16.20;99.90;;;;;;4801603;29;20069;-51
2023/08/08 07:20:08;;;;;;;5.75;1.35;;;16.30;99.90;;;;;;4800205;29;20039;-51
2023/08/08 07:22:34;;;;;;;6.50;1.00;;;16.30;99.90;;;;;;4801736;29;20035;-50
2023/08/08 07:24:59;;;;;;;5.90;1.38;;;16.30;99.90;;;;;;4815085;29;20069;-48
2023/08/08 07:27:26;;;;;;;10.30;1.00;;;16.40;99.90;;;;;;4798926;29;20047;-49
2023/08/08 07:29:52;;;;;;;5.40;1.20;;;16.50;99.90;;;;;;4800615;29;20058;-50
2023/08/08 07:32:18;;;;;;;5.00;0.95;;;16.50;99.90;;;;;;4800945;29;20043;-49
2023/08/08 07:34:43;;;;;;;8.13;1.20;;;16.60;99.90;;;;;;4799001;29;20085;-52
2023/08/08 07:37:09;;;;;;;6.15;1.20;;;16.70;99.90;;;;;;4797652;29;20043;-50
2023/08/08 07:39:35;;;;;;;4.82;1.20;;;16.80;99.90;;;;;;4796683;29;20058;-54
2023/08/08 07:42:01;;;;;;;7.47;1.33;;;16.90;99.90;;;;;;4793617;29;20047;-51
2023/08/08 07:44:27;;;;;;;8.27;1.25;;;16.90;99.90;;;;;;4799816;29;20055;-49
2023/08/08 07:46:52;;;;;;;8.48;1.27;;;16.90;99.90;;;;;;4797028;29;20039;-52
2023/08/08 07:49:18;;;;;;;4.65;1.02;;;16.90;99.90;;;;;;4794533;29;20047;-49
2023/08/08 07:51:44;;;;;;;4.95;1.10;;;17.00;99.90;;;;;;4797691;29;20515;-52
2023/08/08 07:54:10;;;;;;;5.50;1.27;;;17.00;99.90;;;;;;4799517;29;20054;-53
2023/08/08 07:56:36;;;;;;;4.32;1.27;;;17.00;99.90;;;;;;4796646;29;20051;-51
2023/08/08 07:59:03;;;;;;;4.35;1.08;;;17.00;99.90;;;;;;4795020;29;20035;-52
2023/08/08 08:01:29;;;;;;;4.97;0.77;;;17.00;99.90;;;;;;4799646;29;20042;-49
2023/08/08 08:03:55;;;;;;;5.10;1.02;;;17.00;99.90;;;;;;4797174;29;20043;-50
2023/08/08 08:06:21;;;;;;;6.43;1.10;;;17.00;99.90;;;;;;4793660;29;20043;-49
2023/08/08 08:08:46;;;;;;;5.57;1.00;;;17.00;99.90;;;;;;4797071;29;20046;-47
2023/08/08 08:11:13;;;;;;;3.50;0.80;;;17.10;99.90;;;;;;4799062;29;20061;-50
2023/08/08 08:13:39;;;;;;;5.38;0.90;;;17.10;99.90;;;;;;4796588;29;20046;-51
2023/08/08 08:16:05;;;;;;;5.30;1.02;;;17.10;99.90;;;;;;4801724;29;20065;-53
2023/08/08 08:18:32;;;;;;;6.55;1.17;;;17.20;99.90;;;;;;4797100;29;20047;-50
2023/08/08 08:20:57;;;;;;;4.75;1.13;;;17.20;99.90;;;;;;4799858;29;20135;-53
2023/08/08 08:23:23;;;;;;;3.85;1.00;;;17.20;99.90;;;;;;4802062;29;20126;-52
2023/08/08 08:25:50;;;;;;;5.68;0.90;;;17.20;99.90;;;;;;4802042;29;20395;-50
2023/08/08 08:28:16;;;;;;;5.13;1.00;;;17.30;99.90;;;;;;4801520;29;20433;-50
2023/08/08 08:30:43;;;;;;;7.68;1.27;;;17.30;99.90;;;;;;4800800;29;20411;-50
2023/08/08 08:33:09;;;;;;;4.88;0.88;;;17.40;99.90;;;;;;4800437;29;20520;-50
2023/08/08 08:35:35;;;;;;;4.90;1.10;;;17.40;99.90;;;;;;4801948;29;20545;-51
2023/08/08 08:38:01;;;;;;;6.50;1.10;;;17.40;99.90;;;;;;4801394;29;20384;-50
2023/08/08 08:40:39;;;;;;;6.40;1.17;;;17.40;99.90;;;;;;4801797;29;20090;-52
2023/08/08 08:43:06;;;;;;;4.65;1.10;;;17.50;99.90;;;;;;4802418;29;20043;-49
2023/08/08 08:45:37;;;;;;;5.90;0.90;;;17.60;99.90;;;;;;4801191;29;20111;-50
2023/08/08 08:48:03;;;;;;;4.97;0.95;;;17.60;99.90;;;;;;4800953;29;20114;-50
2023/08/08 08:50:32;;;;;;;3.08;1.02;;;17.60;99.90;;;;;;4801382;29;20038;-52
2023/08/08 08:53:00;;;;;;;3.53;0.90;;;17.60;99.90;;;;;;4798600;29;20035;-51
2023/08/08 08:55:27;;;;;;;4.07;0.90;;;17.60;99.90;;;;;;4813583;29;20090;-48
2023/08/08 08:57:53;;;;;;;4.20;1.00;;;17.60;99.90;;;;;;4802706;29;20050;-52
2023/08/08 09:00:19;;;;;;;5.22;1.17;;;17.70;99.90;;;;;;4805788;29;20046;-52
2023/08/08 09:02:45;;;;;;;4.10;1.00;;;17.80;99.90;;;;;;4803906;29;20047;-52
2023/08/08 09:05:13;;;;;;;5.93;1.05;;;17.90;99.90;;;;;;4806063;29;20031;-49
2023/08/08 09:07:39;;;;;;;5.32;1.25;;;17.90;99.90;;;;;;4804252;29;20054;-52
2023/08/08 09:10:05;;;;;;;4.55;1.00;;;17.70;99.90;;;;;;4806599;29;20121;-53
2023/08/08 09:12:31;;;;;;;5.28;0.90;;;17.70;99.90;;;;;;4806619;29;20085;-51
2023/08/08 09:14:57;;;;;;;3.83;0.90;;;17.60;99.90;;;;;;4806518;29;20047;-49
2023/08/08 09:17:26;;;;;;;4.93;0.90;;;17.50;99.90;;;;;;4806791;29;20133;-51
2023/08/08 09:19:58;;;;;;;6.55;0.90;;;17.50;99.90;;;;;;4806134;29;20391;-49
2023/08/08 09:22:24;;;;;;;6.63;1.15;;;17.50;99.90;;;;;;4806738;29;20042;-52
2023/08/08 09:24:50;;;;;;;5.22;1.17;;;17.50;99.90;;;;;;4806482;29;20049;-50
2023/08/08 09:27:16;;;;;;;8.43;1.10;;;17.70;99.90;;;;;;4806399;29;20138;-51
2023/08/08 09:29:42;;;;;;;6.07;0.93;;;17.80;99.90;;;;;;4805942;29;20061;-49
2023/08/08 09:32:08;;;;;;;5.88;1.00;;;17.80;99.90;;;;;;4806507;29;20065;-51
2023/08/08 09:34:34;;;;;;;5.63;0.80;;;17.90;99.90;;;;;;4804976;29;20046;-52
2023/08/08 09:37:01;;;;;;;5.43;0.90;;;17.90;99.90;;;;;;4806037;29;20042;-52
2023/08/08 09:39:28;;;;;;;8.18;1.00;;;17.90;99.90;;;;;;4804772;29;20051;-52
2023/08/08 09:41:55;;;;;;;2.33;0.70;;;17.90;99.90;;;;;;4806201;29;20043;-50
2023/08/08 09:44:29;;;;;;;5.80;0.90;;;17.80;99.90;;;;;;4806058;29;20789;-50
2023/08/08 09:46:56;;;;;;;5.38;0.80;;;17.80;99.90;;;;;;4806195;29;20387;-52
2023/08/08 09:49:22;;;;;;;5.57;0.85;;;17.80;99.90;;;;;;4806260;29;20046;-49
2023/08/08 09:51:49;;;;;;;3.92;0.85;;;17.70;99.90;;;;;;4806002;29;20043;-49
2023/08/08 09:54:16;;;;;;;4.25;0.80;;;17.70;99.90;;;;;;4805664;29;20043;-52
2023/08/08 09:56:43;;;;;;;4.15;0.75;;;17.90;99.90;;;;;;4804742;29;20491;-50
2023/08/08 09:59:09;;;;;;;3.53;0.88;;;18.30;99.90;;;;;;4805370;29;20476;-48
2023/08/08 10:01:38;;;;;;;4.15;0.98;;;18.40;99.90;;;;;;4805001;29;20130;-49
2023/08/08 10:04:06;;;;;;;7.53;1.20;;;18.30;99.90;;;;;;4804246;29;20046;-52
2023/08/08 10:06:32;;;;;;;4.22;1.10;;;18.20;99.90;;;;;;4804779;29;20046;-50
2023/08/08 10:08:58;;;;;;;5.43;0.85;;;18.30;99.90;;;;;;4805074;29;20426;-51
2023/08/08 10:11:25;;;;;;;6.65;1.15;;;18.10;99.90;;;;;;4805593;29;20050;-51
2023/08/08 10:13:54;;;;;;;4.28;0.90;;;18.00;99.90;;;;;;4805734;29;20121;-49
2023/08/08 10:16:21;;;;;;;6.22;1.30;;;17.90;99.90;;;;;;4805480;29;20086;-51
2023/08/08 10:18:58;;;;;;;7.55;1.30;;;17.80;99.90;;;;;;4805304;29;20065;-49
2023/08/08 10:21:24;;;;;;;5.45;1.13;;;17.50;99.90;;;;;;4805549;29;20082;-50
2023/08/08 10:24:10;;;;;;;5.75;1.20;;;17.30;99.90;;;;;;4803805;29;20107;-52
2023/08/08 10:26:57;;;;;;;5.75;1.20;;;17.10;99.90;;;;;;4804213;29;20057;-49
2023/08/08 10:29:25;;;;;;;4.65;1.05;;;17.00;99.90;;;;;;4805409;29;20119;-51
2023/08/08 10:31:58;;;;;;;4.35;1.13;;;17.00;99.90;;;;;;4819144;29;20597;-52
2023/08/08 10:34:37;;;;;;;4.55;1.10;;;17.00;99.90;;;;;;4805414;29;20043;-51
2023/08/08 10:37:14;;;;;;;5.75;1.10;;;17.10;99.90;;;;;;4804646;29;20046;-51
2023/08/08 10:40:00;;;;;;;4.78;0.90;;;17.30;99.90;;;;;;4803886;29;20460;-50
2023/08/08 10:42:27;;;;;;;6.63;1.38;;;17.70;99.90;;;;;;4804819;29;20038;-52
2023/08/08 10:44:58;;;;;;;4.63;1.10;;;18.00;99.90;;;;;;4804760;29;20058;-52
2023/08/08 10:47:25;;;;;;;4.55;1.10;;;18.20;99.90;;;;;;4805088;29;20125;-52
2023/08/08 10:50:22;;;;;;;4.80;1.13;;;18.10;99.90;;;;;;4803839;29;20519;-51
2023/08/08 10:52:54;;;;;;;3.55;1.10;;;17.80;99.90;;;;;;4802719;29;20055;-50
2023/08/08 10:55:36;;;;;;;4.85;1.05;;;17.50;99.90;;;;;;4804450;29;20050;-52
2023/08/08 10:58:10;;;;;;;5.60;1.40;;;17.20;99.90;;;;;;4804974;29;20074;-54
2023/08/08 11:00:41;;;;;;;4.00;1.38;;;17.00;99.90;;;;;;4804710;29;20058;-53
2023/08/08 11:03:08;;;;;;;6.75;1.25;;;16.30;99.90;;;;;;4799849;29;20049;-53
2023/08/08 11:05:36;;;;;;;3.88;1.05;;;16.00;99.90;;;;;;4797327;29;20047;-52
2023/08/08 11:08:04;;;;;;;4.90;1.30;;;15.80;99.90;;;;;;4799698;29;20077;-50
2023/08/08 11:10:37;;;;;;;8.23;1.52;;;15.90;99.90;;;;;;4801378;29;20406;-48
2023/08/08 11:13:04;;;;;;;5.68;1.67;;;15.90;99.90;;;;;;4801177;29;20051;-51
2023/08/08 11:15:33;;;;;;;5.57;1.30;;;16.10;99.90;;;;;;4802257;29;20050;-52
2023/08/08 11:17:59;;;;;;;5.28;1.50;;;16.30;99.90;;;;;;4802729;29;20054;-50
2023/08/08 11:20:28;;;;;;;6.22;1.50;;;16.30;99.90;;;;;;4801534;29;20058;-50
2023/08/08 11:22:55;;;;;;;5.47;1.33;;;16.10;99.90;;;;;;4802532;29;20046;-48
2023/08/08 11:25:24;;;;;;;6.65;1.92;;;15.90;99.90;;;;;;4801407;29;20039;-55
2023/08/08 11:27:54;;;;;;;4.45;1.55;;;15.70;99.90;;;;;;4799141;29;20050;-54
2023/08/08 11:30:22;;;;;;;5.50;1.92;;;15.30;99.90;;;;;;4801932;29;20054;-49
2023/08/08 11:32:49;;;;;;;5.35;1.90;;;15.40;99.90;;;;;;4802456;29;20042;-54
2023/08/08 11:35:23;;;;;;;5.68;1.65;;;15.30;99.90;;;;;;4799906;29;20133;-51
2023/08/08 11:37:53;;;;;;;5.72;2.40;;;15.50;99.90;;;;;;4799702;29;20054;-53
2023/08/08 11:40:20;;;;;;;6.13;1.92;;;15.80;99.90;;;;;;4801206;29;20376;-50
2023/08/08 11:42:47;;;;;;;5.60;1.83;;;16.50;99.90;;;;;;4802110;29;20053;-51
2023/08/08 11:45:13;;;;;;;6.20;1.90;;;16.60;99.90;;;;;;4802518;29;20042;-51
2023/08/08 11:47:40;;;;;;;6.82;1.52;;;17.10;99.90;;;;;;4802594;29;20130;-54
2023/08/08 11:50:08;;;;;;;6.55;1.60;;;17.30;99.90;;;;;;4802449;29;20042;-51
2023/08/08 11:52:40;;;;;;;3.78;1.70;;;17.60;99.90;;;;;;4802613;29;20423;-50
2023/08/08 11:55:10;;;;;;;6.18;1.80;;;17.60;99.90;;;;;;4801523;29;20046;-51
2023/08/08 11:57:37;;;;;;;5.82;1.77;;;17.40;99.90;;;;;;4800790;29;20042;-49
2023/08/08 12:00:13;;;;;;;8.80;2.15;;;17.30;99.90;;;;;;4800323;29;20129;-52
2023/08/08 12:02:41;;;;;;;4.70;1.30;;;17.20;99.90;;;;;;4801553;29;20062;-52
2023/08/08 12:05:08;;;;;;;6.20;1.92;;;16.90;99.90;;;;;;4801918;29;20103;-52
2023/08/08 12:07:35;;;;;;;6.32;1.42;;;17.00;99.90;;;;;;4801676;29;20393;-50
2023/08/08 12:10:03;;;;;;;3.97;1.45;;;16.80;99.90;;;;;;4815545;29;20046;-51
2023/08/08 12:12:32;;;;;;;4.55;1.35;;;16.80;99.90;;;;;;4801059;29;20088;-53
2023/08/08 12:14:57;;;;;;;2.97;1.08;;;16.80;99.90;;;;;;4801966;29;20191;-52
2023/08/08 12:17:23;;;;;;;4.68;1.50;;;16.60;99.90;;;;;;4801979;29;20121;-53
2023/08/08 12:19:49;;;;;;;6.38;1.25;;;16.50;99.90;;;;;;4801220;29;20047;-54
2023/08/08 12:22:15;;;;;;;4.80;1.52;;;16.50;99.90;;;;;;4802804;29;20077;-50
2023/08/08 12:24:41;;;;;;;5.97;1.58;;;16.30;99.90;;;;;;4801840;29;20042;-50
2023/08/08 12:27:06;;;;;;;5.75;1.40;;;16.10;99.90;;;;;;4801436;29;20400;-54
2023/08/08 12:29:32;;;;;;;5.13;1.50;;;16.10;99.90;;;;;;4804301;29;20047;-52
2023/08/08 12:31:58;;;;;;;5.90;1.20;;;15.80;99.90;;;;;;4805305;29;20046;-52
2023/08/08 12:34:23;;;;;;;5.78;1.80;;;15.80;99.90;;;;;;4804754;29;20053;-50
2023/08/08 12:36:49;;;;;;;5.68;1.70;;;16.00;99.90;;;;;;4805688;29;20051;-51
2023/08/08 12:39:15;;;;;;;5.50;1.73;;;16.10;99.90;;;;;;4803748;29;20045;-50
2023/08/08 12:41:40;;;;;;;5.32;1.48;;;16.20;99.90;;;;;;4804520;29;20502;-54
2023/08/08 12:44:07;;;;;;;6.60;1.67;;;16.30;99.90;;;;;;4805030;29;20176;-49